ENVR/VRY METAR and TAF weather

Enter ICAO airport designator
Station Type Date Time Source
ENVR METAR 2022/06/30 12:50 UTC NOAA

ENVR 301250Z 01013KT CAVOK 13/10 Q1020


Station Type Date Time Source
ENVR Decoded METAR 2022/06/30 12:50 UTC NOAA

Station name not available
Jun 30, 2022 - 08:50 AM EDT / 2022.06.30 1250 UTC
Wind: from the N (010 degrees) at 15 MPH (13 KT):0
Visibility: greater than 7 mile(s):0
Temperature: 55 F (13 C)
Dew Point: 50 F (10 C)
Relative Humidity: 81%
Pressure (altimeter): 30.12 in. Hg (1020 hPa)
ob: ENVR 301250Z 01013KT CAVOK 13/10 Q1020
cycle: 13

Station Type Date Time Source
ENVR TAF UTC NOAA

Error!

Example: see airport list